sensor_id;sensor_type;location;lat;lon;timestamp;temperature;humidity
52203;DHT22;38173;52.850;6.970;2023-05-17T00:00:47;8.40;99.90
52203;DHT22;38173;52.850;6.970;2023-05-17T00:03:13;8.40;99.90
52203;DHT22;38173;52.850;6.970;2023-05-17T00:05:38;8.30;99.90
52203;DHT22;38173;52.850;6.970;2023-05-17T00:08:04;8.30;99.90
52203;DHT22;38173;52.850;6.970;2023-05-17T00:10:30;8.30;99.90
52203;DHT22;38173;52.850;6.970;2023-05-17T00:12:55;8.30;99.90
52203;DHT22;38173;52.850;6.970;2023-05-17T00:15:21;8.30;99.90
52203;DHT22;38173;52.850;6.970;2023-05-17T00:17:47;8.30;99.90
52203;DHT22;38173;52.850;6.970;2023-05-17T00:20:12;8.30;99.90
52203;DHT22;38173;52.850;6.970;2023-05-17T00:22:38;8.30;99.90
52203;DHT22;38173;52.850;6.970;2023-05-17T00:25:05;8.30;99.90
52203;DHT22;38173;52.850;6.970;2023-05-17T00:27:31;8.40;99.90
52203;DHT22;38173;52.850;6.970;2023-05-17T00:29:56;8.30;99.90
52203;DHT22;38173;52.850;6.970;2023-05-17T00:32:22;8.30;99.90
52203;DHT22;38173;52.850;6.970;2023-05-17T00:34:48;8.20;99.90
52203;DHT22;38173;52.850;6.970;2023-05-17T00:37:14;8.20;99.90
52203;DHT22;38173;52.850;6.970;2023-05-17T00:39:40;8.10;99.90
52203;DHT22;38173;52.850;6.970;2023-05-17T00:42:06;8.10;99.90
52203;DHT22;38173;52.850;6.970;2023-05-17T00:44:32;8.00;99.90
52203;DHT22;38173;52.850;6.970;2023-05-17T00:46:57;7.90;99.90
52203;DHT22;38173;52.850;6.970;2023-05-17T00:49:24;7.80;99.90
52203;DHT22;38173;52.850;6.970;2023-05-17T00:51:50;7.80;99.90
52203;DHT22;38173;52.850;6.970;2023-05-17T00:54:16;7.70;99.90
52203;DHT22;38173;52.850;6.970;2023-05-17T00:56:42;7.70;99.90
52203;DHT22;38173;52.850;6.970;2023-05-17T00:59:08;7.60;99.90
52203;DHT22;38173;52.850;6.970;2023-05-17T01:01:34;7.50;99.90
52203;DHT22;38173;52.850;6.970;2023-05-17T01:04:00;7.50;99.90
52203;DHT22;38173;52.850;6.970;2023-05-17T01:06:26;7.40;99.90
52203;DHT22;38173;52.850;6.970;2023-05-17T01:08:52;7.30;99.90
52203;DHT22;38173;52.850;6.970;2023-05-17T01:13:54;7.30;99.90
52203;DHT22;38173;52.850;6.970;2023-05-17T01:16:32;7.40;99.90
52203;DHT22;38173;52.850;6.970;2023-05-17T01:26:46;7.50;99.90
52203;DHT22;38173;52.850;6.970;2023-05-17T01:29:14;7.40;99.90
52203;DHT22;38173;52.850;6.970;2023-05-17T01:31:40;7.30;99.90
52203;DHT22;38173;52.850;6.970;2023-05-17T01:34:09;7.30;99.90
52203;DHT22;38173;52.850;6.970;2023-05-17T01:36:35;7.30;99.90
52203;DHT22;38173;52.850;6.970;2023-05-17T01:39:01;7.20;99.90
52203;DHT22;38173;52.850;6.970;2023-05-17T01:41:40;7.20;99.90
52203;DHT22;38173;52.850;6.970;2023-05-17T01:46:52;7.20;99.90
52203;DHT22;38173;52.850;6.970;2023-05-17T01:49:29;7.10;99.90
52203;DHT22;38173;52.850;6.970;2023-05-17T01:52:06;7.10;99.90
52203;DHT22;38173;52.850;6.970;2023-05-17T01:54:37;7.00;99.90
52203;DHT22;38173;52.850;6.970;2023-05-17T01:57:03;7.00;99.90
52203;DHT22;38173;52.850;6.970;2023-05-17T01:59:30;7.00;99.90
52203;DHT22;38173;52.850;6.970;2023-05-17T02:01:58;7.00;99.90
52203;DHT22;38173;52.850;6.970;2023-05-17T02:04:31;6.90;99.90
52203;DHT22;38173;52.850;6.970;2023-05-17T02:06:57;6.90;99.90
52203;DHT22;38173;52.850;6.970;2023-05-17T02:09:23;6.90;99.90
52203;DHT22;38173;52.850;6.970;2023-05-17T02:11:48;6.90;99.90
52203;DHT22;38173;52.850;6.970;2023-05-17T02:14:14;6.90;99.90
52203;DHT22;38173;52.850;6.970;2023-05-17T02:16:40;7.00;99.90
52203;DHT22;38173;52.850;6.970;2023-05-17T02:19:06;7.10;99.90
52203;DHT22;38173;52.850;6.970;2023-05-17T02:21:33;7.10;99.90
52203;DHT22;38173;52.850;6.970;2023-05-17T02:23:59;7.10;99.90
52203;DHT22;38173;52.850;6.970;2023-05-17T02:26:25;7.10;99.90
52203;DHT22;38173;52.850;6.970;2023-05-17T02:28:52;7.10;99.90
52203;DHT22;38173;52.850;6.970;2023-05-17T02:31:17;7.00;99.90
52203;DHT22;38173;52.850;6.970;2023-05-17T02:33:43;7.00;99.90
52203;DHT22;38173;52.850;6.970;2023-05-17T02:36:09;6.90;99.90
52203;DHT22;38173;52.850;6.970;2023-05-17T02:38:35;6.90;99.90
52203;DHT22;38173;52.850;6.970;2023-05-17T02:41:01;6.90;99.90
52203;DHT22;38173;52.850;6.970;2023-05-17T02:43:28;6.90;99.90
52203;DHT22;38173;52.850;6.970;2023-05-17T02:45:53;6.80;99.90
52203;DHT22;38173;52.850;6.970;2023-05-17T02:48:20;6.90;99.90
52203;DHT22;38173;52.850;6.970;2023-05-17T02:50:46;6.80;99.90
52203;DHT22;38173;52.850;6.970;2023-05-17T02:53:11;6.90;99.90
52203;DHT22;38173;52.850;6.970;2023-05-17T02:55:37;6.90;99.90
52203;DHT22;38173;52.850;6.970;2023-05-17T02:58:03;6.90;99.90
52203;DHT22;38173;52.850;6.970;2023-05-17T03:00:30;6.90;99.90
52203;DHT22;38173;52.850;6.970;2023-05-17T03:02:55;6.90;99.90
52203;DHT22;38173;52.850;6.970;2023-05-17T03:05:23;6.80;99.90
52203;DHT22;38173;52.850;6.970;2023-05-17T03:07:49;6.80;99.90
52203;DHT22;38173;52.850;6.970;2023-05-17T03:10:15;6.70;99.90
52203;DHT22;38173;52.850;6.970;2023-05-17T03:12:42;6.60;99.90
52203;DHT22;38173;52.850;6.970;2023-05-17T03:15:08;6.50;99.90
52203;DHT22;38173;52.850;6.970;2023-05-17T03:17:33;6.50;99.90
52203;DHT22;38173;52.850;6.970;2023-05-17T03:19:59;6.40;99.90
52203;DHT22;38173;52.850;6.970;2023-05-17T03:22:25;6.40;99.90
52203;DHT22;38173;52.850;6.970;2023-05-17T03:24:51;6.40;99.90
52203;DHT22;38173;52.850;6.970;2023-05-17T03:27:16;6.30;99.90
52203;DHT22;38173;52.850;6.970;2023-05-17T03:29:42;6.30;99.90
52203;DHT22;38173;52.850;6.970;2023-05-17T03:32:08;6.30;99.90
52203;DHT22;38173;52.850;6.970;2023-05-17T03:34:33;6.20;99.90
52203;DHT22;38173;52.850;6.970;2023-05-17T03:36:59;6.30;99.90
52203;DHT22;38173;52.850;6.970;2023-05-17T03:39:26;6.20;99.90
52203;DHT22;38173;52.850;6.970;2023-05-17T03:41:52;6.20;99.90
52203;DHT22;38173;52.850;6.970;2023-05-17T03:44:18;6.30;99.90
52203;DHT22;38173;52.850;6.970;2023-05-17T03:46:43;6.30;99.90
52203;DHT22;38173;52.850;6.970;2023-05-17T03:49:09;6.40;99.90
52203;DHT22;38173;52.850;6.970;2023-05-17T03:51:35;6.40;99.90
52203;DHT22;38173;52.850;6.970;2023-05-17T03:54:01;6.50;99.90
52203;DHT22;38173;52.850;6.970;2023-05-17T03:56:26;6.50;99.90
52203;DHT22;38173;52.850;6.970;2023-05-17T03:58:52;6.50;99.90
52203;DHT22;38173;52.850;6.970;2023-05-17T04:01:18;6.60;99.90
52203;DHT22;38173;52.850;6.970;2023-05-17T04:03:45;6.60;99.90
52203;DHT22;38173;52.850;6.970;2023-05-17T04:06:12;6.60;99.90
52203;DHT22;38173;52.850;6.970;2023-05-17T04:08:37;6.60;99.90
52203;DHT22;38173;52.850;6.970;2023-05-17T04:11:03;6.70;99.90
52203;DHT22;38173;52.850;6.970;2023-05-17T04:13:35;6.70;99.90
52203;DHT22;38173;52.850;6.970;2023-05-17T04:16:01;6.80;99.90
52203;DHT22;38173;52.850;6.970;2023-05-17T04:18:27;6.80;99.90
52203;DHT22;38173;52.850;6.970;2023-05-17T04:20:56;6.90;99.90
52203;DHT22;38173;52.850;6.970;2023-05-17T04:23:22;6.90;99.90
52203;DHT22;38173;52.850;6.970;2023-05-17T04:25:48;7.00;99.90
52203;DHT22;38173;52.850;6.970;2023-05-17T04:28:13;7.10;99.90
52203;DHT22;38173;52.850;6.970;2023-05-17T04:30:42;7.10;99.90
52203;DHT22;38173;52.850;6.970;2023-05-17T04:33:08;7.20;99.90
52203;DHT22;38173;52.850;6.970;2023-05-17T04:35:34;7.20;99.90
52203;DHT22;38173;52.850;6.970;2023-05-17T04:38:00;7.20;99.90
52203;DHT22;38173;52.850;6.970;2023-05-17T04:40:26;7.30;99.90
52203;DHT22;38173;52.850;6.970;2023-05-17T04:42:52;7.40;99.90
52203;DHT22;38173;52.850;6.970;2023-05-17T04:45:18;7.50;99.90
52203;DHT22;38173;52.850;6.970;2023-05-17T04:47:44;7.50;99.90
52203;DHT22;38173;52.850;6.970;2023-05-17T04:50:10;7.50;99.90
52203;DHT22;38173;52.850;6.970;2023-05-17T04:52:36;7.60;99.90
52203;DHT22;38173;52.850;6.970;2023-05-17T04:55:02;7.70;99.90
52203;DHT22;38173;52.850;6.970;2023-05-17T04:57:29;7.80;99.90
52203;DHT22;38173;52.850;6.970;2023-05-17T04:59:58;7.90;99.90
52203;DHT22;38173;52.850;6.970;2023-05-17T05:02:23;7.90;99.90
52203;DHT22;38173;52.850;6.970;2023-05-17T05:04:49;8.00;99.90
52203;DHT22;38173;52.850;6.970;2023-05-17T05:07:15;8.00;99.90
52203;DHT22;38173;52.850;6.970;2023-05-17T05:09:41;8.10;99.90
52203;DHT22;38173;52.850;6.970;2023-05-17T05:12:06;8.20;99.90
52203;DHT22;38173;52.850;6.970;2023-05-17T05:14:32;8.20;99.90
52203;DHT22;38173;52.850;6.970;2023-05-17T05:16:58;8.30;99.90
52203;DHT22;38173;52.850;6.970;2023-05-17T05:19:24;8.30;99.90
52203;DHT22;38173;52.850;6.970;2023-05-17T05:21:49;8.40;99.90
52203;DHT22;38173;52.850;6.970;2023-05-17T05:24:15;8.50;99.90
52203;DHT22;38173;52.850;6.970;2023-05-17T05:26:41;8.50;99.90
52203;DHT22;38173;52.850;6.970;2023-05-17T05:29:07;8.60;99.90
52203;DHT22;38173;52.850;6.970;2023-05-17T05:31:32;8.70;99.90
52203;DHT22;38173;52.850;6.970;2023-05-17T05:33:58;8.70;99.90
52203;DHT22;38173;52.850;6.970;2023-05-17T05:36:24;8.80;99.90
52203;DHT22;38173;52.850;6.970;2023-05-17T05:38:49;8.90;99.90
52203;DHT22;38173;52.850;6.970;2023-05-17T05:41:18;9.00;99.90
52203;DHT22;38173;52.850;6.970;2023-05-17T05:43:45;9.00;99.90
52203;DHT22;38173;52.850;6.970;2023-05-17T05:46:10;9.10;99.90
52203;DHT22;38173;52.850;6.970;2023-05-17T05:48:38;9.10;99.90
52203;DHT22;38173;52.850;6.970;2023-05-17T05:51:06;9.10;99.90
52203;DHT22;38173;52.850;6.970;2023-05-17T05:53:32;9.20;99.90
52203;DHT22;38173;52.850;6.970;2023-05-17T05:56:00;9.20;99.90
52203;DHT22;38173;52.850;6.970;2023-05-17T05:58:26;9.30;99.90
52203;DHT22;38173;52.850;6.970;2023-05-17T06:00:51;9.40;99.90
52203;DHT22;38173;52.850;6.970;2023-05-17T06:03:17;9.60;99.90
52203;DHT22;38173;52.850;6.970;2023-05-17T06:05:42;9.60;99.90
52203;DHT22;38173;52.850;6.970;2023-05-17T06:08:08;9.70;99.90
52203;DHT22;38173;52.850;6.970;2023-05-17T06:10:34;9.70;99.90
52203;DHT22;38173;52.850;6.970;2023-05-17T06:13:03;9.70;99.90
52203;DHT22;38173;52.850;6.970;2023-05-17T06:15:29;9.70;99.90
52203;DHT22;38173;52.850;6.970;2023-05-17T06:17:55;9.70;99.90
52203;DHT22;38173;52.850;6.970;2023-05-17T06:20:21;9.80;99.90
52203;DHT22;38173;52.850;6.970;2023-05-17T06:22:47;9.80;99.90
52203;DHT22;38173;52.850;6.970;2023-05-17T06:25:12;9.90;99.90
52203;DHT22;38173;52.850;6.970;2023-05-17T06:27:38;9.90;99.90
52203;DHT22;38173;52.850;6.970;2023-05-17T06:30:04;10.00;99.90
52203;DHT22;38173;52.850;6.970;2023-05-17T06:32:30;10.10;99.90
52203;DHT22;38173;52.850;6.970;2023-05-17T06:34:55;10.30;99.90
52203;DHT22;38173;52.850;6.970;2023-05-17T06:37:22;10.40;99.90
52203;DHT22;38173;52.850;6.970;2023-05-17T06:39:49;10.40;99.90
52203;DHT22;38173;52.850;6.970;2023-05-17T06:42:15;10.40;99.90
52203;DHT22;38173;52.850;6.970;2023-05-17T06:44:43;10.40;99.90
52203;DHT22;38173;52.850;6.970;2023-05-17T06:47:09;10.40;99.90
52203;DHT22;38173;52.850;6.970;2023-05-17T06:49:36;10.40;99.90
52203;DHT22;38173;52.850;6.970;2023-05-17T06:52:02;10.40;99.90
52203;DHT22;38173;52.850;6.970;2023-05-17T06:54:30;10.40;99.90
52203;DHT22;38173;52.850;6.970;2023-05-17T06:57:02;10.40;99.90
52203;DHT22;38173;52.850;6.970;2023-05-17T06:59:28;10.40;99.90
52203;DHT22;38173;52.850;6.970;2023-05-17T07:01:55;10.30;99.90
52203;DHT22;38173;52.850;6.970;2023-05-17T07:04:21;10.30;99.90
52203;DHT22;38173;52.850;6.970;2023-05-17T07:06:47;10.30;99.90
52203;DHT22;38173;52.850;6.970;2023-05-17T07:09:12;10.50;99.90
52203;DHT22;38173;52.850;6.970;2023-05-17T07:11:38;10.70;99.90
52203;DHT22;38173;52.850;6.970;2023-05-17T07:14:04;10.70;99.90
52203;DHT22;38173;52.850;6.970;2023-05-17T07:16:30;10.80;99.90
52203;DHT22;38173;52.850;6.970;2023-05-17T07:18:58;10.90;99.90
52203;DHT22;38173;52.850;6.970;2023-05-17T07:21:24;10.90;99.90
52203;DHT22;38173;52.850;6.970;2023-05-17T07:23:50;11.00;99.90
52203;DHT22;38173;52.850;6.970;2023-05-17T07:26:18;11.20;99.90
52203;DHT22;38173;52.850;6.970;2023-05-17T07:28:44;11.50;99.90
52203;DHT22;38173;52.850;6.970;2023-05-17T07:31:10;11.50;99.90
52203;DHT22;38173;52.850;6.970;2023-05-17T07:33:36;11.50;99.90
52203;DHT22;38173;52.850;6.970;2023-05-17T07:36:02;11.50;99.60
52203;DHT22;38173;52.850;6.970;2023-05-17T07:38:28;11.40;97.90
52203;DHT22;38173;52.850;6.970;2023-05-17T07:40:57;11.40;99.90
52203;DHT22;38173;52.850;6.970;2023-05-17T07:43:23;11.40;99.20
52203;DHT22;38173;52.850;6.970;2023-05-17T07:45:54;11.40;98.50
52203;DHT22;38173;52.850;6.970;2023-05-17T07:48:20;11.40;99.60
52203;DHT22;38173;52.850;6.970;2023-05-17T07:50:46;11.30;99.90
52203;DHT22;38173;52.850;6.970;2023-05-17T07:53:12;11.30;99.40
52203;DHT22;38173;52.850;6.970;2023-05-17T07:55:37;11.30;99.80
52203;DHT22;38173;52.850;6.970;2023-05-17T07:58:03;11.30;99.90
52203;DHT22;38173;52.850;6.970;2023-05-17T08:00:29;11.30;99.90
52203;DHT22;38173;52.850;6.970;2023-05-17T08:02:55;11.50;99.90
52203;DHT22;38173;52.850;6.970;2023-05-17T08:05:21;11.60;99.90
52203;DHT22;38173;52.850;6.970;2023-05-17T08:07:46;11.70;99.90
52203;DHT22;38173;52.850;6.970;2023-05-17T08:10:12;11.80;99.90
52203;DHT22;38173;52.850;6.970;2023-05-17T08:12:37;11.80;99.90
52203;DHT22;38173;52.850;6.970;2023-05-17T08:15:03;11.80;99.90
52203;DHT22;38173;52.850;6.970;2023-05-17T08:17:29;11.80;99.90
52203;DHT22;38173;52.850;6.970;2023-05-17T08:19:55;11.70;99.60
52203;DHT22;38173;52.850;6.970;2023-05-17T08:22:21;11.80;99.90
52203;DHT22;38173;52.850;6.970;2023-05-17T08:24:46;12.00;98.30
52203;DHT22;38173;52.850;6.970;2023-05-17T08:27:12;12.10;96.40
52203;DHT22;38173;52.850;6.970;2023-05-17T08:29:38;12.20;94.00
52203;DHT22;38173;52.850;6.970;2023-05-17T08:32:03;12.30;96.20
52203;DHT22;38173;52.850;6.970;2023-05-17T08:34:33;12.20;93.40
52203;DHT22;38173;52.850;6.970;2023-05-17T08:36:59;12.20;93.20
52203;DHT22;38173;52.850;6.970;2023-05-17T08:39:25;12.30;92.30
52203;DHT22;38173;52.850;6.970;2023-05-17T08:41:50;12.30;92.70
52203;DHT22;38173;52.850;6.970;2023-05-17T08:44:17;12.20;92.80
52203;DHT22;38173;52.850;6.970;2023-05-17T08:46:43;12.30;92.50
52203;DHT22;38173;52.850;6.970;2023-05-17T08:49:21;12.40;92.30
52203;DHT22;38173;52.850;6.970;2023-05-17T08:51:50;12.50;92.70
52203;DHT22;38173;52.850;6.970;2023-05-17T08:54:17;12.60;89.90
52203;DHT22;38173;52.850;6.970;2023-05-17T08:56:43;12.80;90.00
52203;DHT22;38173;52.850;6.970;2023-05-17T08:59:09;12.90;85.40
52203;DHT22;38173;52.850;6.970;2023-05-17T09:01:36;13.00;85.70
52203;DHT22;38173;52.850;6.970;2023-05-17T09:04:04;13.00;85.80
52203;DHT22;38173;52.850;6.970;2023-05-17T09:06:30;13.30;82.50
52203;DHT22;38173;52.850;6.970;2023-05-17T09:08:57;13.50;83.50
52203;DHT22;38173;52.850;6.970;2023-05-17T09:14:00;13.50;78.40
52203;DHT22;38173;52.850;6.970;2023-05-17T09:16:32;13.30;80.90
52203;DHT22;38173;52.850;6.970;2023-05-17T09:18:59;13.30;81.50
52203;DHT22;38173;52.850;6.970;2023-05-17T09:21:28;13.20;82.40
52203;DHT22;38173;52.850;6.970;2023-05-17T09:23:55;13.20;80.10
52203;DHT22;38173;52.850;6.970;2023-05-17T09:26:23;13.20;83.80
52203;DHT22;38173;52.850;6.970;2023-05-17T09:28:49;13.20;82.40
52203;DHT22;38173;52.850;6.970;2023-05-17T09:31:17;13.20;82.30
52203;DHT22;38173;52.850;6.970;2023-05-17T09:33:44;13.30;80.40
52203;DHT22;38173;52.850;6.970;2023-05-17T09:36:17;13.20;82.30
52203;DHT22;38173;52.850;6.970;2023-05-17T09:38:54;13.30;81.80
52203;DHT22;38173;52.850;6.970;2023-05-17T09:41:20;13.30;83.50
52203;DHT22;38173;52.850;6.970;2023-05-17T09:43:47;13.20;85.40
52203;DHT22;38173;52.850;6.970;2023-05-17T09:46:13;13.30;83.20
52203;DHT22;38173;52.850;6.970;2023-05-17T09:48:40;13.30;83.00
52203;DHT22;38173;52.850;6.970;2023-05-17T09:51:08;13.30;85.90
52203;DHT22;38173;52.850;6.970;2023-05-17T09:53:34;13.30;84.00
52203;DHT22;38173;52.850;6.970;2023-05-17T09:56:06;13.20;83.30
52203;DHT22;38173;52.850;6.970;2023-05-17T09:58:32;13.30;86.80
52203;DHT22;38173;52.850;6.970;2023-05-17T10:00:59;13.40;85.80
52203;DHT22;38173;52.850;6.970;2023-05-17T10:03:29;13.50;84.20
52203;DHT22;38173;52.850;6.970;2023-05-17T10:05:55;13.80;84.30
52203;DHT22;38173;52.850;6.970;2023-05-17T10:08:22;13.90;81.60
52203;DHT22;38173;52.850;6.970;2023-05-17T10:10:50;13.90;82.50
52203;DHT22;38173;52.850;6.970;2023-05-17T10:13:20;13.90;80.80
52203;DHT22;38173;52.850;6.970;2023-05-17T10:15:49;13.80;76.10
52203;DHT22;38173;52.850;6.970;2023-05-17T10:18:15;13.60;75.70
52203;DHT22;38173;52.850;6.970;2023-05-17T10:20:42;13.60;76.90
52203;DHT22;38173;52.850;6.970;2023-05-17T10:23:08;13.90;77.50
52203;DHT22;38173;52.850;6.970;2023-05-17T10:25:37;14.40;75.60
52203;DHT22;38173;52.850;6.970;2023-05-17T10:28:03;14.40;76.10
52203;DHT22;38173;52.850;6.970;2023-05-17T10:30:32;14.40;71.40
52203;DHT22;38173;52.850;6.970;2023-05-17T10:32:58;14.40;70.00
52203;DHT22;38173;52.850;6.970;2023-05-17T10:35:24;14.60;72.10
52203;DHT22;38173;52.850;6.970;2023-05-17T10:37:50;14.80;69.80
52203;DHT22;38173;52.850;6.970;2023-05-17T10:40:16;14.70;70.60
52203;DHT22;38173;52.850;6.970;2023-05-17T10:42:44;14.60;69.40
52203;DHT22;38173;52.850;6.970;2023-05-17T10:45:11;14.50;70.00
52203;DHT22;38173;52.850;6.970;2023-05-17T10:47:39;14.50;70.40
52203;DHT22;38173;52.850;6.970;2023-05-17T10:50:10;14.50;71.60
52203;DHT22;38173;52.850;6.970;2023-05-17T10:52:37;14.50;70.30
52203;DHT22;38173;52.850;6.970;2023-05-17T10:55:03;14.40;69.70
52203;DHT22;38173;52.850;6.970;2023-05-17T11:00:01;14.30;74.20
52203;DHT22;38173;52.850;6.970;2023-05-17T11:02:29;14.50;75.70
52203;DHT22;38173;52.850;6.970;2023-05-17T11:04:55;14.50;76.40
52203;DHT22;38173;52.850;6.970;2023-05-17T11:07:23;14.60;74.50
52203;DHT22;38173;52.850;6.970;2023-05-17T11:09:52;14.50;72.50
52203;DHT22;38173;52.850;6.970;2023-05-17T11:13:01;14.30;74.40
52203;DHT22;38173;52.850;6.970;2023-05-17T11:15:09;14.20;75.40
52203;DHT22;38173;52.850;6.970;2023-05-17T11:20:04;14.40;74.70
52203;DHT22;38173;52.850;6.970;2023-05-17T11:22:37;14.40;71.80
52203;DHT22;38173;52.850;6.970;2023-05-17T11:25:07;14.40;71.60
52203;DHT22;38173;52.850;6.970;2023-05-17T11:27:46;14.50;72.80
52203;DHT22;38173;52.850;6.970;2023-05-17T11:32:47;14.60;71.60
52203;DHT22;38173;52.850;6.970;2023-05-17T11:35:13;14.80;70.90
52203;DHT22;38173;52.850;6.970;2023-05-17T11:37:40;14.90;70.10
52203;DHT22;38173;52.850;6.970;2023-05-17T11:40:07;15.00;68.80
52203;DHT22;38173;52.850;6.970;2023-05-17T11:42:34;15.00;68.80
52203;DHT22;38173;52.850;6.970;2023-05-17T11:45:02;14.90;68.70
52203;DHT22;38173;52.850;6.970;2023-05-17T11:47:28;14.80;67.00
52203;DHT22;38173;52.850;6.970;2023-05-17T11:49:55;14.80;69.90
52203;DHT22;38173;52.850;6.970;2023-05-17T11:52:21;14.90;68.60
52203;DHT22;38173;52.850;6.970;2023-05-17T11:54:47;15.00;65.80
52203;DHT22;38173;52.850;6.970;2023-05-17T11:57:13;15.10;66.80
52203;DHT22;38173;52.850;6.970;2023-05-17T11:59:41;15.20;64.00
52203;DHT22;38173;52.850;6.970;2023-05-17T12:02:26;15.20;65.10
52203;DHT22;38173;52.850;6.970;2023-05-17T12:04:52;15.10;64.90
52203;DHT22;38173;52.850;6.970;2023-05-17T12:07:17;15.00;64.80
52203;DHT22;38173;52.850;6.970;2023-05-17T12:09:43;14.90;67.00
52203;DHT22;38173;52.850;6.970;2023-05-17T12:12:09;14.60;65.80
52203;DHT22;38173;52.850;6.970;2023-05-17T12:14:35;14.50;68.10
52203;DHT22;38173;52.850;6.970;2023-05-17T12:17:06;14.40;68.90
52203;DHT22;38173;52.850;6.970;2023-05-17T12:19:35;14.50;68.40
52203;DHT22;38173;52.850;6.970;2023-05-17T12:22:05;14.90;69.60
52203;DHT22;38173;52.850;6.970;2023-05-17T12:24:38;15.30;67.40
52203;DHT22;38173;52.850;6.970;2023-05-17T12:27:11;15.60;64.80
52203;DHT22;38173;52.850;6.970;2023-05-17T12:29:38;15.70;63.60
52203;DHT22;38173;52.850;6.970;2023-05-17T12:32:04;15.90;64.60
52203;DHT22;38173;52.850;6.970;2023-05-17T12:34:30;15.90;63.50
52203;DHT22;38173;52.850;6.970;2023-05-17T12:36:56;15.60;62.90
52203;DHT22;38173;52.850;6.970;2023-05-17T12:39:25;15.30;65.00
52203;DHT22;38173;52.850;6.970;2023-05-17T12:41:51;15.30;64.70
52203;DHT22;38173;52.850;6.970;2023-05-17T12:44:17;15.20;63.00
52203;DHT22;38173;52.850;6.970;2023-05-17T12:46:45;15.10;63.30
52203;DHT22;38173;52.850;6.970;2023-05-17T12:49:14;15.20;65.10
52203;DHT22;38173;52.850;6.970;2023-05-17T12:51:43;15.90;64.60
52203;DHT22;38173;52.850;6.970;2023-05-17T12:54:09;16.60;64.40
52203;DHT22;38173;52.850;6.970;2023-05-17T12:56:34;16.60;60.50
52203;DHT22;38173;52.850;6.970;2023-05-17T12:59:04;16.10;62.80
52203;DHT22;38173;52.850;6.970;2023-05-17T13:01:34;15.90;62.80
52203;DHT22;38173;52.850;6.970;2023-05-17T13:04:00;16.20;64.00
52203;DHT22;38173;52.850;6.970;2023-05-17T13:06:26;16.60;59.90
52203;DHT22;38173;52.850;6.970;2023-05-17T13:09:01;17.20;62.60
52203;DHT22;38173;52.850;6.970;2023-05-17T13:11:26;17.30;59.70
52203;DHT22;38173;52.850;6.970;2023-05-17T13:13:52;17.20;61.90
52203;DHT22;38173;52.850;6.970;2023-05-17T13:16:28;17.10;61.90
52203;DHT22;38173;52.850;6.970;2023-05-17T13:18:56;16.70;61.90
52203;DHT22;38173;52.850;6.970;2023-05-17T13:21:23;16.90;60.10
52203;DHT22;38173;52.850;6.970;2023-05-17T13:23:52;17.40;62.40
52203;DHT22;38173;52.850;6.970;2023-05-17T13:26:18;17.40;57.70
52203;DHT22;38173;52.850;6.970;2023-05-17T13:28:44;17.50;62.70
52203;DHT22;38173;52.850;6.970;2023-05-17T13:31:10;18.00;60.00
52203;DHT22;38173;52.850;6.970;2023-05-17T13:33:36;18.10;57.50
52203;DHT22;38173;52.850;6.970;2023-05-17T13:36:04;17.90;59.20
52203;DHT22;38173;52.850;6.970;2023-05-17T13:38:33;17.60;59.80
52203;DHT22;38173;52.850;6.970;2023-05-17T13:41:01;17.20;58.00
52203;DHT22;38173;52.850;6.970;2023-05-17T13:43:27;16.70;59.30
52203;DHT22;38173;52.850;6.970;2023-05-17T13:45:53;16.20;60.50
52203;DHT22;38173;52.850;6.970;2023-05-17T13:48:21;16.00;60.90
52203;DHT22;38173;52.850;6.970;2023-05-17T13:50:47;16.40;58.70
52203;DHT22;38173;52.850;6.970;2023-05-17T13:53:13;16.40;60.10
52203;DHT22;38173;52.850;6.970;2023-05-17T13:55:38;16.00;60.00
52203;DHT22;38173;52.850;6.970;2023-05-17T13:58:04;16.10;61.00
52203;DHT22;38173;52.850;6.970;2023-05-17T14:00:30;16.90;62.60
52203;DHT22;38173;52.850;6.970;2023-05-17T14:02:55;17.80;59.50
52203;DHT22;38173;52.850;6.970;2023-05-17T14:05:21;18.40;56.80
52203;DHT22;38173;52.850;6.970;2023-05-17T14:07:47;18.90;58.50
52203;DHT22;38173;52.850;6.970;2023-05-17T14:10:12;19.50;56.00
52203;DHT22;38173;52.850;6.970;2023-05-17T14:12:38;20.00;55.50
52203;DHT22;38173;52.850;6.970;2023-05-17T14:15:05;20.30;53.80
52203;DHT22;38173;52.850;6.970;2023-05-17T14:17:32;19.90;53.50
52203;DHT22;38173;52.850;6.970;2023-05-17T14:19:58;20.10;53.80
52203;DHT22;38173;52.850;6.970;2023-05-17T14:22:23;20.40;54.50
52203;DHT22;38173;52.850;6.970;2023-05-17T14:24:49;21.00;53.70
52203;DHT22;38173;52.850;6.970;2023-05-17T14:27:19;21.60;52.60
52203;DHT22;38173;52.850;6.970;2023-05-17T14:29:45;21.40;51.50
52203;DHT22;38173;52.850;6.970;2023-05-17T14:32:11;21.20;51.50
52203;DHT22;38173;52.850;6.970;2023-05-17T14:34:38;21.40;53.40
52203;DHT22;38173;52.850;6.970;2023-05-17T14:37:04;21.80;50.30
52203;DHT22;38173;52.850;6.970;2023-05-17T14:39:30;22.40;52.60
52203;DHT22;38173;52.850;6.970;2023-05-17T14:41:55;22.60;49.20
52203;DHT22;38173;52.850;6.970;2023-05-17T14:44:21;22.80;51.60
52203;DHT22;38173;52.850;6.970;2023-05-17T14:46:47;22.80;48.00
52203;DHT22;38173;52.850;6.970;2023-05-17T14:49:13;22.80;47.30
52203;DHT22;38173;52.850;6.970;2023-05-17T14:51:38;23.00;48.80
52203;DHT22;38173;52.850;6.970;2023-05-17T14:54:04;23.60;50.00
52203;DHT22;38173;52.850;6.970;2023-05-17T14:56:30;23.80;47.50
52203;DHT22;38173;52.850;6.970;2023-05-17T14:58:56;23.70;47.30
52203;DHT22;38173;52.850;6.970;2023-05-17T15:01:22;23.00;48.50
52203;DHT22;38173;52.850;6.970;2023-05-17T15:03:48;21.40;49.30
52203;DHT22;38173;52.850;6.970;2023-05-17T15:06:14;20.50;50.10
52203;DHT22;38173;52.850;6.970;2023-05-17T15:08:40;19.70;52.50
52203;DHT22;38173;52.850;6.970;2023-05-17T15:11:06;18.80;50.20
52203;DHT22;38173;52.850;6.970;2023-05-17T15:13:31;18.10;52.60
52203;DHT22;38173;52.850;6.970;2023-05-17T15:15:57;17.50;53.70
52203;DHT22;38173;52.850;6.970;2023-05-17T15:18:23;17.50;56.20
52203;DHT22;38173;52.850;6.970;2023-05-17T15:20:49;18.50;54.90
52203;DHT22;38173;52.850;6.970;2023-05-17T15:23:15;19.70;53.70
52203;DHT22;38173;52.850;6.970;2023-05-17T15:25:41;20.80;52.20
52203;DHT22;38173;52.850;6.970;2023-05-17T15:28:06;21.10;51.30
52203;DHT22;38173;52.850;6.970;2023-05-17T15:30:32;21.50;48.50
52203;DHT22;38173;52.850;6.970;2023-05-17T15:32:58;21.80;49.70
52203;DHT22;38173;52.850;6.970;2023-05-17T15:35:24;22.10;50.40
52203;DHT22;38173;52.850;6.970;2023-05-17T15:37:51;21.90;48.80
52203;DHT22;38173;52.850;6.970;2023-05-17T15:40:19;21.20;49.50
52203;DHT22;38173;52.850;6.970;2023-05-17T15:42:46;20.00;49.20
52203;DHT22;38173;52.850;6.970;2023-05-17T15:45:11;18.80;51.00
52203;DHT22;38173;52.850;6.970;2023-05-17T15:47:37;18.10;52.80
52203;DHT22;38173;52.850;6.970;2023-05-17T15:50:05;17.60;54.10
52203;DHT22;38173;52.850;6.970;2023-05-17T15:52:31;17.30;52.90
52203;DHT22;38173;52.850;6.970;2023-05-17T15:54:57;17.60;55.00
52203;DHT22;38173;52.850;6.970;2023-05-17T15:57:22;18.90;54.80